Flight Track Log - Related Links

Times and Time Zones

All times are in EDT time to prevent confusion due to time zone crossing. See the N830QS flight status page for this flight to view local times or setup timezone preferences in your user account.

Time Position Orientation Groundspeed Altitude Reporting Facility
EDT Latitude Longitude Course Direction KTS MPH feet Rate Location/Type
Thu 11:13:10 AM 36.8708 -118.1181 341° North 237 273 17,800  Level Oakland Center
Thu 11:14:11 AM 36.9414 -118.1392 347° North 247 284 17,800  Level Oakland Center
Thu 11:15:13 AM 37.0189 -118.1636 346° North 270 311 17,800  Level Oakland Center
Thu 11:16:14 AM 37.0942 -118.1892 345° North 277 319 17,800  Level Oakland Center
Thu 11:17:15 AM 37.1600 -118.2239 337° Northwest 263 303 17,800  Level Oakland Center
Thu 11:18:00 AM 37.1609 -118.2666 341° North  Level FlightAware Approximate
Thu 11:18:17 AM 37.2250 -118.2678 332° Northwest 263 303 17,800  Level Oakland Center
Thu 11:19:18 AM 37.2872 -118.3072 333° Northwest 257 296 17,600 -98 Descending Oakland Center
Thu 11:20:19 AM 37.3650 -118.3589 332° Northwest 258 297 17,600  Level Oakland Center
Thu 11:21:20 AM 37.4292 -118.3625 357° North 257 296 17,600 439 Level Oakland Center
Thu 11:22:22 AM 37.4717 -118.3017 49° Northeast 240 276 18,500 1,286 Climbing Oakland Center
Thu 11:23:54 AM 37.5128 -118.4206 294° West 280 322 20,900 1,623 Climbing Los Angeles Center
Thu 11:24:24 AM 37.5114 -118.4856 268° West 307 353 21,800 717 Climbing Oakland Center
Thu 11:25:26 AM 37.5178 -118.6056 274° West 338 389 22,000 98 Climbing Oakland Center
Thu 11:26:27 AM 37.5600 -118.7064 298° West 357 411 22,000  Level Oakland Center
Thu 11:27:28 AM 37.6489 -118.7575 336° Northwest 352 405 22,000  Level Oakland Center
Thu 11:28:30 AM 37.6658 -118.8714 281° West 309 356 22,000  Level Oakland Center
Thu 11:29:31 AM 37.6669 -118.9744 271° West 295 339 22,000  Level Oakland Center
Thu 11:30:32 AM 37.6650 -119.1006 269° West 354 407 22,000  Level Oakland Center
Thu 11:31:34 AM 37.6642 -119.2394 270° West 383 441 22,000  Level Oakland Center
Thu 11:32:35 AM 37.6636 -119.3769 270° West 390 449 22,000  Level Oakland Center
Thu 11:33:36 AM 37.6583 -119.5158 267° West 392 451 22,000  Level Oakland Center
Thu 11:34:38 AM 37.6564 -119.6506 269° West 388 447 22,000  Level Oakland Center
Thu 11:35:39 AM 37.6528 -119.7825 268° West 380 437 22,000  Level Oakland Center
Thu 11:36:40 AM 37.6525 -119.9106 270° West 369 425 22,000  Level Oakland Center
Thu 11:37:42 AM 37.6497 -120.0667 269° West 371 427 22,000  Level Oakland Center
Thu 11:38:43 AM 37.6456 -120.1967 268° West 371 427 22,000  Level Oakland Center
Thu 11:39:44 AM 37.6433 -120.3233 269° West 363 418 22,000 -293 Level Oakland Center
Thu 11:40:46 AM 37.6397 -120.4517 268° West 365 420 21,400 -976 Descending Oakland Center
Thu 11:41:47 AM 37.6369 -120.5761 268° West 357 411 20,000 -683 Descending Oakland Center
Thu 11:42:49 AM 37.6342 -120.6969 268° West 348 400 20,000  Level Oakland Center
Thu 11:43:50 AM 37.6294 -120.8239 267° West 357 411 20,000  Level Oakland Center
Thu 11:44:51 AM 37.6261 -120.9478 268° West 354 407 20,000 -205 Level Oakland Center
Thu 11:45:47 AM 37.6167 -121.0667 264° West 331 381 19,600 -1,086 Descending Northern Cal TRACON
Thu 11:46:47 AM 37.6000 -121.1667 258° West 337 388 17,900 -1,789 Descending Northern Cal TRACON
Thu 11:47:41 AM 37.5833 -121.2833 260° West 323 372 16,200 -1,737 Descending Northern Cal TRACON
Thu 11:48:41 AM 37.5833 -121.3833 270° West 311 358 14,600 -1,579 Descending Northern Cal TRACON
Thu 11:49:35 AM 37.5667 -121.4833 258° West 306 352 13,200 -1,526 Descending Northern Cal TRACON
Thu 11:50:35 AM 37.5500 -121.5833 258° West 300 345 11,700 -1,100 Descending Northern Cal TRACON
Thu 11:51:35 AM 37.5667 -121.6833 282° West 269 310 11,000 -800 Descending Northern Cal TRACON
Thu 11:52:35 AM 37.6000 -121.7500 302° West 245 282 10,100 -500 Descending Northern Cal TRACON
Thu 11:53:35 AM 37.6333 -121.8333 297° West 251 289 10,000 -50 Descending Northern Cal TRACON
Thu 11:54:35 AM 37.6333 -121.9167 270° West 247 284 10,000 -400 Level Northern Cal TRACON
Thu 11:55:35 AM 37.5667 -121.9333 191° South 253 291 9,200 -450 Descending Northern Cal TRACON
Thu 11:56:35 AM 37.5500 -121.8667 107° East 218 251 9,100 -50 Descending Northern Cal TRACON
Thu 11:57:35 AM 37.5000 -121.8167 142° Southeast 203 234 9,100 -500 Level Northern Cal TRACON
Thu 11:58:35 AM 37.4667 -121.8167 180° South 216 249 8,100 -500 Descending Northern Cal TRACON
Thu 11:59:35 AM 37.4667 -121.8833 270° West 208 239 8,100  Level Northern Cal TRACON
Thu 12:00:35 PM 37.5333 -121.8667 11° North 220 253 8,100  Level Northern Cal TRACON
Thu 12:01:35 PM 37.5667 -121.8500 22° Northeast 231 266 8,100  Level Northern Cal TRACON
Thu 12:02:35 PM 37.5167 -121.8333 165° South 210 242 8,100  Level Northern Cal TRACON
Thu 12:03:35 PM 37.4667 -121.8500 195° South 208 239 8,100 -53 Level Northern Cal TRACON
Thu 12:04:29 PM 37.4500 -121.9167 253° West 208 239 8,000 -684 Descending Northern Cal TRACON
Thu 12:05:29 PM 37.4500 -121.9833 270° West 212 244 6,800 -950 Descending Northern Cal TRACON
Thu 12:06:29 PM 37.4833 -122.0500 302° West 194 223 6,100 -1,100 Descending Northern Cal TRACON
Thu 12:07:29 PM 37.5000 -122.1167 288° West 216 249 4,600 -1,373 Descending Northern Cal TRACON
Thu 12:08:27 PM 37.5322 -122.1708 307° West 205 236 3,400 -1,000 Descending Oakland Center
Thu 12:09:29 PM 37.5481 -122.2103 297° West 149 171 2,600 -683 Descending Oakland Center
Thu 12:10:30 PM 37.5628 -122.2433 299° West 123 142 2,000 -537 Descending Oakland Center
Thu 12:11:32 PM 37.5764 -122.2747 299° West 110 127 1,500 -484 Descending Oakland Center
Thu 12:12:34 PM 37.5903 -122.3086 297° West 108 124 1,000 -537 Descending Oakland Center
Thu 12:13:35 PM 37.6042 -122.3414 298° West 107 123 400 -341 Descending Oakland Center
Thu 12:14:37 PM 37.6186 -122.3731 300° West 107 123 300 -97 Descending Oakland Center

Login

Don't have an account? Register now (free) for customized features, flight alerts, and more!